createdAt,value
2024-01-01T00:00:06.328Z,125.03
2024-01-01T00:02:39.600Z,96.83
2024-01-01T00:05:08.357Z,86.13
2024-01-01T00:07:36.098Z,91.83
2024-01-01T00:10:04.022Z,108.10
2024-01-01T00:12:31.291Z,108.50
2024-01-01T00:14:58.778Z,104.00
2024-01-01T00:17:26.147Z,89.97
2024-01-01T00:19:53.521Z,107.47
2024-01-01T00:22:20.982Z,80.90
2024-01-01T00:24:48.239Z,63.67
2024-01-01T00:27:15.680Z,69.63
2024-01-01T00:29:43.004Z,58.10
2024-01-01T00:32:10.411Z,51.17
2024-01-01T00:34:38.069Z,43.40
2024-01-01T00:37:05.512Z,43.20
2024-01-01T00:39:32.770Z,38.77
2024-01-01T00:42:00.032Z,41.63
2024-01-01T00:44:28.526Z,49.37
2024-01-01T00:46:56.180Z,47.60
2024-01-01T00:49:23.515Z,50.17
2024-01-01T00:51:51.583Z,53.73
2024-01-01T00:54:18.946Z,56.63
2024-01-01T00:56:46.199Z,56.57
2024-01-01T00:59:13.653Z,59.27
2024-01-01T01:01:41.134Z,58.27
2024-01-01T01:04:08.545Z,59.33
2024-01-01T01:06:36.911Z,58.90
2024-01-01T01:09:05.194Z,55.73
2024-01-01T01:11:33.372Z,55.53
2024-01-01T01:14:00.606Z,49.07
2024-01-01T01:16:27.959Z,43.87
2024-01-01T01:18:55.331Z,42.03
2024-01-01T01:21:22.594Z,60.80
2024-01-01T01:23:49.867Z,37.07
2024-01-01T01:26:17.174Z,32.93
2024-01-01T01:28:44.455Z,32.93
2024-01-01T01:31:11.792Z,26.77
2024-01-01T01:33:39.918Z,27.40
2024-01-01T01:36:07.891Z,25.97
2024-01-01T01:38:37.097Z,68.40
2024-01-01T01:41:04.815Z,22.23
2024-01-01T01:43:32.244Z,23.97
2024-01-01T01:46:01.016Z,19.87
2024-01-01T01:48:29.088Z,19.30
2024-01-01T01:50:56.818Z,19.03
2024-01-01T01:53:27.580Z,19.53
2024-01-01T01:55:58.636Z,18.47
2024-01-01T01:58:26.177Z,16.97
2024-01-01T02:00:56.276Z,13.83
2024-01-01T02:03:23.694Z,16.30
2024-01-01T02:05:51.829Z,17.20
2024-01-01T02:08:19.910Z,15.93
2024-01-01T02:10:47.594Z,15.03
2024-01-01T02:13:27.258Z,14.20
2024-01-01T02:15:55.452Z,12.80
2024-01-01T02:18:23.786Z,11.60
2024-01-01T02:20:51.321Z,11.70
2024-01-01T02:23:20.255Z,11.03
2024-01-01T02:25:48.187Z,10.77
2024-01-01T02:28:16.013Z,14.90
2024-01-01T02:30:43.893Z,10.07
2024-01-01T02:33:11.937Z,13.20
2024-01-01T02:35:39.508Z,9.77
2024-01-01T02:38:09.707Z,10.03
2024-01-01T02:40:38.609Z,9.57
2024-01-01T02:43:06.036Z,9.13
2024-01-01T02:45:40.883Z,8.37
2024-01-01T02:48:11.913Z,10.07
2024-01-01T02:50:42.816Z,9.07
2024-01-01T02:53:10.244Z,10.37
2024-01-01T02:55:37.980Z,8.80
2024-01-01T02:58:05.734Z,8.17
2024-01-01T03:00:33.190Z,8.40
2024-01-01T03:03:00.674Z,7.90
2024-01-01T03:05:28.444Z,7.90
2024-01-01T03:07:56.228Z,7.57
2024-01-01T03:10:23.475Z,7.40
2024-01-01T03:12:50.673Z,8.43
2024-01-01T03:15:18.114Z,7.70
2024-01-01T03:17:46.694Z,7.23
2024-01-01T03:20:14.218Z,7.27
2024-01-01T03:22:43.301Z,6.83
2024-01-01T03:25:10.916Z,7.23
2024-01-01T03:27:38.308Z,7.20
2024-01-01T03:30:07.389Z,10.77
2024-01-01T03:32:36.176Z,7.40
2024-01-01T03:35:04.059Z,8.30
2024-01-01T03:37:31.784Z,7.27
2024-01-01T03:39:58.984Z,25.73
2024-01-01T03:42:26.200Z,8.30
2024-01-01T03:44:53.448Z,8.00
2024-01-01T03:47:21.224Z,7.80
2024-01-01T03:49:49.350Z,7.63
2024-01-01T03:52:16.635Z,14.67
2024-01-01T03:54:43.793Z,7.50
2024-01-01T03:57:11.032Z,8.43
2024-01-01T03:59:38.988Z,8.60
2024-01-01T04:02:06.722Z,8.33
2024-01-01T04:04:34.033Z,8.33
2024-01-01T04:07:01.296Z,8.67
2024-01-01T04:09:28.541Z,8.67
2024-01-01T04:11:55.830Z,9.33
2024-01-01T04:14:23.108Z,13.60
2024-01-01T04:16:50.484Z,9.60
2024-01-01T04:19:17.682Z,9.57
2024-01-01T04:21:44.953Z,8.90
2024-01-01T04:24:12.080Z,9.30
2024-01-01T04:26:39.676Z,17.53
2024-01-01T04:29:06.937Z,9.27
2024-01-01T04:31:34.211Z,9.87
2024-01-01T04:34:01.591Z,8.90
2024-01-01T04:36:28.852Z,9.10
2024-01-01T04:38:56.480Z,9.47
2024-01-01T04:41:23.789Z,9.27
2024-01-01T04:43:51.328Z,8.97
2024-01-01T04:46:18.501Z,9.07
2024-01-01T04:48:45.711Z,9.57
2024-01-01T04:51:12.990Z,8.33
2024-01-01T04:53:40.261Z,7.77
2024-01-01T04:56:07.788Z,8.30
2024-01-01T04:58:35.367Z,9.13
2024-01-01T05:01:02.688Z,8.37
2024-01-01T05:03:29.842Z,9.13
2024-01-01T05:05:57.038Z,8.33
2024-01-01T05:08:24.241Z,9.00
2024-01-01T05:10:51.456Z,9.00
2024-01-01T05:13:18.742Z,9.13
2024-01-01T05:15:45.907Z,7.10
2024-01-01T05:18:13.140Z,8.87
2024-01-01T05:20:40.435Z,8.47
2024-01-01T05:23:08.754Z,8.33
2024-01-01T05:25:36.591Z,8.37
2024-01-01T05:28:06.569Z,9.57
2024-01-01T05:30:34.296Z,8.10
2024-01-01T05:33:01.570Z,8.50
2024-01-01T05:35:28.807Z,8.47
2024-01-01T05:37:56.327Z,7.37
2024-01-01T05:40:23.605Z,8.47
2024-01-01T05:42:50.791Z,8.10
2024-01-01T05:45:17.896Z,8.27
2024-01-01T05:47:45.141Z,7.73
2024-01-01T05:50:12.439Z,7.50
2024-01-01T05:52:39.729Z,8.43
2024-01-01T05:55:07.480Z,7.40
2024-01-01T05:57:34.884Z,7.67
2024-01-01T06:00:02.975Z,8.00
2024-01-01T06:02:33.372Z,7.43
2024-01-01T06:05:01.804Z,7.97
2024-01-01T06:07:29.385Z,7.63
2024-01-01T06:09:56.944Z,8.47
2024-01-01T06:12:24.443Z,8.30
2024-01-01T06:14:51.866Z,6.90
2024-01-01T06:17:20.160Z,8.00
2024-01-01T06:19:50.187Z,7.73
2024-01-01T06:22:17.633Z,7.30
2024-01-01T06:24:44.827Z,7.33
2024-01-01T06:27:12.044Z,7.83
2024-01-01T06:29:39.568Z,8.17
2024-01-01T06:32:07.803Z,9.07
2024-01-01T06:34:35.111Z,9.83
2024-01-01T06:37:02.279Z,8.03
2024-01-01T06:39:29.557Z,6.90
2024-01-01T06:41:56.698Z,7.47
2024-01-01T06:44:26.446Z,6.83
2024-01-01T06:46:53.954Z,6.63
2024-01-01T06:49:21.229Z,6.83
2024-01-01T06:51:51.737Z,7.47
2024-01-01T06:54:19.338Z,6.93
2024-01-01T06:56:46.647Z,7.57
2024-01-01T06:59:17.043Z,6.93
2024-01-01T07:01:44.486Z,6.83
2024-01-01T07:04:12.621Z,6.93
2024-01-01T07:06:41.733Z,7.63
2024-01-01T07:09:10.253Z,7.07
2024-01-01T07:11:37.579Z,7.07
2024-01-01T07:14:04.832Z,7.77
2024-01-01T07:16:32.491Z,8.10
2024-01-01T07:18:59.851Z,8.00
2024-01-01T07:21:27.768Z,7.63
2024-01-01T07:23:55.059Z,8.90
2024-01-01T07:26:22.383Z,7.87
2024-01-01T07:28:49.656Z,8.77
2024-01-01T07:31:17.156Z,7.73
2024-01-01T07:33:44.316Z,8.33
2024-01-01T07:36:12.329Z,8.40
2024-01-01T07:38:43.886Z,8.30
2024-01-01T07:41:11.225Z,7.83
2024-01-01T07:43:38.694Z,8.17
2024-01-01T07:46:06.342Z,9.37
2024-01-01T07:48:33.705Z,8.57
2024-01-01T07:51:01.792Z,8.57
2024-01-01T07:53:28.954Z,8.53
2024-01-01T07:55:56.247Z,9.10
2024-01-01T07:58:24.455Z,8.93
2024-01-01T08:00:51.945Z,8.87
2024-01-01T08:03:21.476Z,9.27
2024-01-01T08:05:49.094Z,8.93
2024-01-01T08:08:18.099Z,9.13
2024-01-01T08:10:45.571Z,9.27
2024-01-01T08:13:13.383Z,9.03
2024-01-01T08:15:40.712Z,8.73
2024-01-01T08:18:08.626Z,9.13
2024-01-01T08:20:40.022Z,9.20
2024-01-01T08:23:07.215Z,9.43
2024-01-01T08:25:34.725Z,9.03
2024-01-01T08:28:01.983Z,10.33
2024-01-01T08:30:29.157Z,8.33
2024-01-01T08:32:56.463Z,9.90
2024-01-01T08:35:23.704Z,8.63
2024-01-01T08:37:51.133Z,8.83
2024-01-01T08:40:19.659Z,7.77
2024-01-01T08:42:48.483Z,7.73
2024-01-01T08:45:17.956Z,8.73
2024-01-01T08:47:45.155Z,9.00
2024-01-01T08:50:13.212Z,9.13
2024-01-01T08:52:40.540Z,8.50
2024-01-01T08:55:07.903Z,8.63
2024-01-01T08:57:35.129Z,8.27
2024-01-01T09:00:05.993Z,7.80
2024-01-01T09:02:33.548Z,7.37
2024-01-01T09:05:00.850Z,7.67
2024-01-01T09:07:28.166Z,8.30
2024-01-01T09:09:55.516Z,7.53
2024-01-01T09:12:22.701Z,8.00
2024-01-01T09:14:49.865Z,8.77
2024-01-01T09:17:17.313Z,8.10
2024-01-01T09:19:45.706Z,8.60
2024-01-01T09:22:13.539Z,8.30
2024-01-01T09:24:42.499Z,7.50
2024-01-01T09:27:09.695Z,8.03
2024-01-01T09:29:36.850Z,8.50
2024-01-01T09:32:05.014Z,7.73
2024-01-01T09:34:32.308Z,7.40
2024-01-01T09:37:03.769Z,7.10
2024-01-01T09:39:31.684Z,7.60
2024-01-01T09:42:02.337Z,6.63
2024-01-01T09:44:29.632Z,7.20
2024-01-01T09:46:56.875Z,8.33
2024-01-01T09:49:25.888Z,7.10
2024-01-01T09:51:57.685Z,7.03
2024-01-01T09:54:24.888Z,6.63
2024-01-01T09:56:52.050Z,7.70
2024-01-01T09:59:39.204Z,6.60
2024-01-01T10:02:08.997Z,6.50
2024-01-01T10:04:37.128Z,7.07
2024-01-01T10:07:04.830Z,7.00
2024-01-01T10:09:32.761Z,6.10
2024-01-01T10:12:11.353Z,5.93
2024-01-01T10:15:07.332Z,6.47
2024-01-01T10:17:34.659Z,6.53
2024-01-01T10:20:03.169Z,5.90
2024-01-01T10:22:33.750Z,6.27
2024-01-01T10:25:13.201Z,6.00
2024-01-01T10:27:43.197Z,5.80
2024-01-01T10:30:11.076Z,4.87
2024-01-01T10:32:40.770Z,5.90
2024-01-01T10:35:11.438Z,5.90
2024-01-01T10:37:40.131Z,5.30
2024-01-01T10:40:10.484Z,5.13
2024-01-01T10:42:38.401Z,5.77
2024-01-01T10:45:06.372Z,4.83
2024-01-01T10:47:34.296Z,5.57
2024-01-01T10:50:21.109Z,5.20
2024-01-01T10:53:18.559Z,5.53
2024-01-01T10:56:30.379Z,4.97
2024-01-01T10:59:08.553Z,4.23
2024-01-01T11:01:38.421Z,4.30
2024-01-01T11:04:06.653Z,4.07
2024-01-01T11:06:36.294Z,4.13
2024-01-01T11:09:22.293Z,5.10
2024-01-01T11:11:52.054Z,4.60
2024-01-01T11:14:33.755Z,4.70
2024-01-01T11:17:08.388Z,4.23
2024-01-01T11:19:52.699Z,3.93
2024-01-01T11:22:31.623Z,4.20
2024-01-01T11:25:00.675Z,3.90
2024-01-01T11:27:33.667Z,3.70
2024-01-01T11:30:12.475Z,3.20
2024-01-01T11:32:39.797Z,4.20
2024-01-01T11:35:27.137Z,3.37
2024-01-01T11:38:15.579Z,3.70
2024-01-01T11:41:02.776Z,3.90
2024-01-01T11:43:49.866Z,4.37
2024-01-01T11:46:29.331Z,3.83
2024-01-01T11:49:16.522Z,3.90
2024-01-01T11:51:55.929Z,3.83
2024-01-01T11:54:26.665Z,3.47
2024-01-01T11:56:57.930Z,3.97
2024-01-01T11:59:27.740Z,3.83
2024-01-01T12:01:55.548Z,4.10
2024-01-01T12:04:23.531Z,3.83
2024-01-01T12:06:54.889Z,4.07
2024-01-01T12:09:22.704Z,3.60
2024-01-01T12:11:50.460Z,3.93
2024-01-01T12:14:26.849Z,3.90
2024-01-01T12:16:55.651Z,3.60
2024-01-01T12:19:24.683Z,3.73
2024-01-01T12:21:53.478Z,3.13
2024-01-01T12:24:21.582Z,3.60
2024-01-01T12:26:52.469Z,4.20
2024-01-01T12:29:22.039Z,4.10
2024-01-01T12:31:51.308Z,4.47
2024-01-01T12:34:20.913Z,3.90
2024-01-01T12:36:49.581Z,3.90
2024-01-01T12:39:18.166Z,4.10
2024-01-01T12:41:45.979Z,4.10
2024-01-01T12:44:13.933Z,4.00
2024-01-01T12:46:42.178Z,4.60
2024-01-01T12:49:09.678Z,4.27
2024-01-01T12:51:37.320Z,4.20
2024-01-01T12:54:05.255Z,4.50
2024-01-01T12:56:33.639Z,5.00
2024-01-01T12:59:01.556Z,4.80
2024-01-01T13:01:29.209Z,5.00
2024-01-01T13:03:57.306Z,5.23
2024-01-01T13:06:24.954Z,5.13
2024-01-01T13:08:52.167Z,5.20
2024-01-01T13:11:19.890Z,5.93
2024-01-01T13:13:49.156Z,13.30
2024-01-01T13:16:16.312Z,5.50
2024-01-01T13:18:43.547Z,5.30
2024-01-01T13:21:11.918Z,5.37
2024-01-01T13:23:40.055Z,5.03
2024-01-01T13:26:07.534Z,5.97
2024-01-01T13:28:34.678Z,5.77
2024-01-01T13:31:03.711Z,5.40
2024-01-01T13:33:30.953Z,5.70
2024-01-01T13:35:58.619Z,6.07
2024-01-01T13:38:25.852Z,6.10
2024-01-01T13:40:54.675Z,6.30
2024-01-01T13:43:22.595Z,6.17
2024-01-01T13:45:49.894Z,6.20
2024-01-01T13:48:20.483Z,5.37
2024-01-01T13:50:47.794Z,7.43
2024-01-01T13:53:15.301Z,40.47
2024-01-01T13:55:42.934Z,6.30
2024-01-01T13:58:10.255Z,5.73
2024-01-01T14:00:38.702Z,6.10
2024-01-01T14:03:06.936Z,5.87
2024-01-01T14:05:34.582Z,5.30
2024-01-01T14:08:01.954Z,5.80
2024-01-01T14:10:29.194Z,5.67
2024-01-01T14:12:56.630Z,5.90
2024-01-01T14:15:25.242Z,6.57
2024-01-01T14:17:53.812Z,6.13
2024-01-01T14:20:22.248Z,5.47
2024-01-01T14:22:49.988Z,5.60
2024-01-01T14:25:17.442Z,6.53
2024-01-01T14:27:44.765Z,5.30
2024-01-01T14:30:17.825Z,5.50
2024-01-01T14:32:45.377Z,5.87
2024-01-01T14:35:13.481Z,5.93
2024-01-01T14:37:40.863Z,5.80
2024-01-01T14:40:09.397Z,6.40
2024-01-01T14:42:36.764Z,5.80
2024-01-01T14:45:04.940Z,7.23
2024-01-01T14:47:32.262Z,6.20
2024-01-01T14:49:59.628Z,6.63
2024-01-01T14:52:26.848Z,5.00
2024-01-01T14:54:54.111Z,6.80
2024-01-01T14:57:21.276Z,5.60
2024-01-01T14:59:48.486Z,5.90
2024-01-01T15:02:15.729Z,6.43
2024-01-01T15:04:45.223Z,5.90
2024-01-01T15:07:12.970Z,5.83
2024-01-01T15:10:00.182Z,6.03
2024-01-01T15:12:47.347Z,5.73
2024-01-01T15:15:34.594Z,5.63
2024-01-01T15:18:22.519Z,5.60
2024-01-01T15:21:09.915Z,5.07
2024-01-01T15:23:57.060Z,5.73
2024-01-01T15:26:44.373Z,5.97
2024-01-01T15:29:32.702Z,6.00
2024-01-01T15:32:20.066Z,6.33
2024-01-01T15:35:08.504Z,6.33
2024-01-01T15:37:55.781Z,8.80
2024-01-01T15:40:43.147Z,6.40
2024-01-01T15:43:30.447Z,5.80
2024-01-01T15:46:19.002Z,7.23
2024-01-01T15:49:06.369Z,7.13
2024-01-01T15:51:53.521Z,5.83
2024-01-01T15:54:44.919Z,6.53
2024-01-01T15:57:33.648Z,7.37
2024-01-01T16:00:21.280Z,6.20
2024-01-01T16:03:10.411Z,13.57
2024-01-01T16:05:57.866Z,7.87
2024-01-01T16:08:44.998Z,6.77
2024-01-01T16:11:32.131Z,7.10
2024-01-01T16:14:23.373Z,5.97
2024-01-01T16:17:11.310Z,5.50
2024-01-01T16:19:58.603Z,6.50
2024-01-01T16:22:46.108Z,6.00
2024-01-01T16:25:33.414Z,6.40
2024-01-01T16:28:20.512Z,6.43
2024-01-01T16:31:07.668Z,7.03
2024-01-01T16:33:54.928Z,7.37
2024-01-01T16:36:44.193Z,6.70
2024-01-01T16:39:32.675Z,6.23
2024-01-01T16:42:19.867Z,7.00
2024-01-01T16:45:08.252Z,6.80
2024-01-01T16:47:55.579Z,6.77
2024-01-01T16:50:47.040Z,7.83
2024-01-01T16:53:35.189Z,7.10
2024-01-01T16:56:24.812Z,7.50
2024-01-01T16:59:13.507Z,7.40
2024-01-01T17:02:03.267Z,31.63
2024-01-01T17:04:51.379Z,8.27
2024-01-01T17:07:38.596Z,7.37
2024-01-01T17:10:25.871Z,7.70
2024-01-01T17:13:13.413Z,7.13
2024-01-01T17:16:02.508Z,7.70
2024-01-01T17:18:49.636Z,7.40
2024-01-01T17:21:37.956Z,7.80
2024-01-01T17:24:25.034Z,7.57
2024-01-01T17:27:13.955Z,7.93
2024-01-01T17:30:01.445Z,7.40
2024-01-01T17:32:48.733Z,7.87
2024-01-01T17:35:37.882Z,6.83
2024-01-01T17:38:25.296Z,7.13
2024-01-01T17:41:12.485Z,6.83
2024-01-01T17:43:59.730Z,8.27
2024-01-01T17:46:46.942Z,6.93
2024-01-01T17:49:34.961Z,7.47
2024-01-01T17:52:22.099Z,8.33
2024-01-01T17:55:09.566Z,7.60
2024-01-01T17:57:56.666Z,8.00
2024-01-01T18:00:44.138Z,7.70
2024-01-01T18:03:31.442Z,7.80
2024-01-01T18:06:18.649Z,7.27
2024-01-01T18:09:07.958Z,7.10
2024-01-01T18:11:55.204Z,7.10
2024-01-01T18:14:42.341Z,6.93
2024-01-01T18:17:29.662Z,7.03
2024-01-01T18:20:17.061Z,6.70
2024-01-01T18:23:04.783Z,6.97
2024-01-01T18:25:52.373Z,7.10
2024-01-01T18:28:43.283Z,6.87
2024-01-01T18:31:30.574Z,7.23
2024-01-01T18:34:17.808Z,7.40
2024-01-01T18:37:05.228Z,7.13
2024-01-01T18:39:52.419Z,6.47
2024-01-01T18:42:39.611Z,6.70
2024-01-01T18:45:26.784Z,7.30
2024-01-01T18:48:14.017Z,7.10
2024-01-01T18:51:01.566Z,5.90
2024-01-01T18:53:48.777Z,7.63
2024-01-01T18:56:43.353Z,8.33
2024-01-01T18:59:31.159Z,8.23
2024-01-01T19:02:18.373Z,6.37
2024-01-01T19:05:06.203Z,7.30
2024-01-01T19:07:54.663Z,6.60
2024-01-01T19:10:42.388Z,6.30
2024-01-01T19:13:29.593Z,6.50
2024-01-01T19:16:18.298Z,6.27
2024-01-01T19:19:06.101Z,6.10
2024-01-01T19:21:54.765Z,6.10
2024-01-01T19:24:41.929Z,5.73
2024-01-01T19:27:31.093Z,5.90
2024-01-01T19:30:18.477Z,5.93
2024-01-01T19:33:08.108Z,4.90
2024-01-01T19:35:59.142Z,6.10
2024-01-01T19:38:46.231Z,5.53
2024-01-01T19:41:33.663Z,5.63
2024-01-01T19:44:20.883Z,6.60
2024-01-01T19:47:08.065Z,6.20
2024-01-01T19:49:55.496Z,6.00
2024-01-01T19:52:42.808Z,5.13
2024-01-01T19:55:30.304Z,6.20
2024-01-01T19:58:19.014Z,6.17
2024-01-01T20:01:06.633Z,6.67
2024-01-01T20:03:54.155Z,6.40
2024-01-01T20:06:43.635Z,6.20
2024-01-01T20:09:30.801Z,6.20
2024-01-01T20:12:19.378Z,6.90
2024-01-01T20:15:07.193Z,6.30
2024-01-01T20:17:54.420Z,28.33
2024-01-01T20:20:41.613Z,6.30
2024-01-01T20:23:28.877Z,7.20
2024-01-01T20:26:27.669Z,7.67
2024-01-01T20:29:15.012Z,6.57
2024-01-01T20:32:02.121Z,6.40
2024-01-01T20:34:49.222Z,6.77
2024-01-01T20:37:37.097Z,7.07
2024-01-01T20:40:24.545Z,6.30
2024-01-01T20:43:11.809Z,6.90
2024-01-01T20:45:59.087Z,6.33
2024-01-01T20:48:47.122Z,6.70
2024-01-01T20:51:34.684Z,7.47
2024-01-01T20:54:22.019Z,6.83
2024-01-01T20:57:09.240Z,5.90
2024-01-01T20:59:56.520Z,6.37
2024-01-01T21:02:44.139Z,5.53
2024-01-01T21:05:32.976Z,6.90
2024-01-01T21:08:20.448Z,6.47
2024-01-01T21:11:10.900Z,5.07
2024-01-01T21:13:58.162Z,5.03
2024-01-01T21:16:45.337Z,5.27
2024-01-01T21:19:32.409Z,5.37
2024-01-01T21:22:19.516Z,5.63
2024-01-01T21:25:08.427Z,5.50
2024-01-01T21:27:55.817Z,4.43
2024-01-01T21:30:43.182Z,5.07
2024-01-01T21:33:30.324Z,5.27
2024-01-01T21:36:17.481Z,5.30
2024-01-01T21:39:04.976Z,4.97
2024-01-01T21:41:52.067Z,5.73
2024-01-01T21:44:39.139Z,4.57
2024-01-01T21:47:26.627Z,5.13
2024-01-01T21:50:13.964Z,4.50
2024-01-01T21:53:01.594Z,5.30
2024-01-01T21:55:49.161Z,5.30
2024-01-01T21:58:36.300Z,5.33
2024-01-01T22:01:23.356Z,4.93
2024-01-01T22:04:10.550Z,4.73
2024-01-01T22:06:57.724Z,5.07
2024-01-01T22:09:44.766Z,5.20
2024-01-01T22:12:32.719Z,4.70
2024-01-01T22:15:20.586Z,4.63
2024-01-01T22:18:07.783Z,5.60
2024-01-01T22:20:54.875Z,5.40
2024-01-01T22:23:42.079Z,5.50
2024-01-01T22:26:29.229Z,4.77
2024-01-01T22:29:16.389Z,4.53
2024-01-01T22:32:04.600Z,4.93
2024-01-01T22:34:52.081Z,4.53
2024-01-01T22:37:39.136Z,4.67
2024-01-01T22:40:26.229Z,4.90
2024-01-01T22:43:14.089Z,5.27
2024-01-01T22:46:01.288Z,4.90
2024-01-01T22:48:48.398Z,4.63
2024-01-01T22:51:35.533Z,4.60
2024-01-01T22:54:22.560Z,4.93
2024-01-01T22:57:09.725Z,4.73
2024-01-01T22:59:56.897Z,4.73
2024-01-01T23:02:44.004Z,4.23
2024-01-01T23:05:31.355Z,4.60
2024-01-01T23:08:18.635Z,4.47
2024-01-01T23:11:05.731Z,4.37
2024-01-01T23:13:52.893Z,4.47
2024-01-01T23:16:40.041Z,4.13
2024-01-01T23:19:27.167Z,4.80
2024-01-01T23:22:14.787Z,3.23
2024-01-01T23:25:03.093Z,4.53
2024-01-01T23:27:50.761Z,4.50
2024-01-01T23:30:38.223Z,4.70
2024-01-01T23:33:25.444Z,4.30
2024-01-01T23:36:12.726Z,4.23
2024-01-01T23:38:59.806Z,4.30
2024-01-01T23:41:46.845Z,4.67
2024-01-01T23:44:34.041Z,4.17
2024-01-01T23:47:21.122Z,4.43
2024-01-01T23:50:08.771Z,3.77
2024-01-01T23:52:55.986Z,3.30
2024-01-01T23:55:43.082Z,3.67
2024-01-01T23:58:30.287Z,3.67
